Time;durP1;ratioP1;P1;durP2;ratioP2;P2;SDS_P1;SDS_P2;PMS_P1;PMS_P2;Temp;Humidity;BMP_temperature;BMP_pressure;BME280_temperature;BME280_humidity;BME280_pressure;Samples;Min_cycle;Max_cycle;Signal;HPM_P1;HPM_P2
2024/02/14 00:00:02;;;;;;;3.10;2.80;;;6.20;48.60;;;;;;4897640;29;20641;-63
2024/02/14 00:02:29;;;;;;;3.77;2.67;;;6.20;48.40;;;;;;4904084;29;20795;-63
2024/02/14 00:04:55;;;;;;;3.37;3.07;;;6.20;48.50;;;;;;4899475;29;20294;-64
2024/02/14 00:07:22;;;;;;;3.17;2.50;;;6.00;48.50;;;;;;4892946;29;20211;-63
2024/02/14 00:09:48;;;;;;;4.63;2.93;;;6.20;48.50;;;;;;4896232;29;20289;-63
2024/02/14 00:12:15;;;;;;;3.30;2.73;;;6.20;48.40;;;;;;4889572;29;20234;-63
2024/02/14 00:14:42;;;;;;;4.57;2.67;;;6.20;48.40;;;;;;4885788;29;20229;-63
2024/02/14 00:17:10;;;;;;;4.20;3.00;;;6.20;48.60;;;;;;4896621;29;20217;-63
2024/02/14 00:19:36;;;;;;;2.87;2.40;;;6.10;48.70;;;;;;4895371;29;20226;-63
2024/02/14 00:22:03;;;;;;;2.73;2.53;;;6.00;48.70;;;;;;4897943;29;20258;-63
2024/02/14 00:24:30;;;;;;;4.47;2.80;;;5.90;49.20;;;;;;4897550;29;20207;-63
2024/02/14 00:26:57;;;;;;;2.87;2.67;;;6.00;49.00;;;;;;4902837;29;20218;-63
2024/02/14 00:29:24;;;;;;;2.60;2.40;;;6.00;48.90;;;;;;4888143;29;20314;-63
2024/02/14 00:31:50;;;;;;;2.83;2.30;;;6.10;48.90;;;;;;4884367;29;20243;-63
2024/02/14 00:34:17;;;;;;;2.93;2.50;;;6.10;48.70;;;;;;4888085;29;20245;-63
2024/02/14 00:36:43;;;;;;;2.93;2.63;;;6.00;48.90;;;;;;4896448;29;20210;-63
2024/02/14 00:39:10;;;;;;;2.70;2.50;;;6.00;49.00;;;;;;4903203;29;20629;-63
2024/02/14 00:41:37;;;;;;;2.70;2.50;;;6.00;49.20;;;;;;4894520;29;20272;-63
2024/02/14 00:44:04;;;;;;;3.23;2.57;;;6.10;49.10;;;;;;4885801;29;20267;-63
2024/02/14 00:46:30;;;;;;;3.23;2.50;;;6.10;48.60;;;;;;4895520;29;20642;-63
2024/02/14 00:48:57;;;;;;;2.60;2.40;;;6.10;48.60;;;;;;4891666;29;20243;-63
2024/02/14 00:51:23;;;;;;;2.57;2.20;;;6.00;48.80;;;;;;4890621;29;20328;-63
2024/02/14 00:53:50;;;;;;;3.20;2.90;;;6.10;48.40;;;;;;4896510;29;20210;-63
2024/02/14 00:56:17;;;;;;;2.53;2.33;;;6.00;48.60;;;;;;4899481;29;20214;-63
2024/02/14 00:58:43;;;;;;;3.13;2.40;;;6.20;48.40;;;;;;4897063;29;20270;-63
2024/02/14 01:01:12;;;;;;;2.70;2.50;;;6.10;48.40;;;;;;4889138;29;20265;-63
2024/02/14 01:03:38;;;;;;;2.47;2.27;;;6.10;48.40;;;;;;4881501;29;20210;-63
2024/02/14 01:06:05;;;;;;;2.60;2.40;;;6.10;48.40;;;;;;4897502;29;20274;-63
2024/02/14 01:08:31;;;;;;;3.37;2.40;;;6.20;48.40;;;;;;4889999;29;20307;-63
2024/02/14 01:10:58;;;;;;;3.27;2.97;;;6.30;47.90;;;;;;4894275;29;20230;-63
2024/02/14 01:13:24;;;;;;;3.67;2.20;;;6.30;47.80;;;;;;4897424;29;20250;-63
2024/02/14 01:15:51;;;;;;;2.80;2.50;;;6.20;48.20;;;;;;4895746;29;20217;-63
2024/02/14 01:18:17;;;;;;;2.90;2.47;;;6.20;48.10;;;;;;4896454;29;20218;-63
2024/02/14 01:20:44;;;;;;;2.47;2.27;;;6.20;48.10;;;;;;4884815;29;20217;-63
2024/02/14 01:23:10;;;;;;;3.30;2.40;;;6.10;48.20;;;;;;4896628;29;20241;-63
2024/02/14 01:25:37;;;;;;;3.10;2.67;;;6.20;48.10;;;;;;4889729;29;20225;-63
2024/02/14 01:28:05;;;;;;;2.90;2.50;;;6.20;47.90;;;;;;4891324;29;20214;-63
2024/02/14 01:30:31;;;;;;;2.63;2.43;;;6.20;47.80;;;;;;4892555;29;20246;-63
2024/02/14 01:32:58;;;;;;;2.70;2.50;;;6.20;48.10;;;;;;4888615;29;20289;-63
2024/02/14 01:35:26;;;;;;;2.70;2.50;;;6.20;47.40;;;;;;4893502;29;20241;-63
2024/02/14 01:37:54;;;;;;;2.60;2.40;;;6.30;47.40;;;;;;4891790;29;20254;-63
2024/02/14 01:40:21;;;;;;;3.97;2.23;;;6.40;47.10;;;;;;4893253;29;20230;-63
2024/02/14 01:42:46;;;;;;;2.90;2.37;;;6.30;47.30;;;;;;4894550;29;20244;-63
2024/02/14 01:45:13;;;;;;;3.30;2.40;;;6.30;47.20;;;;;;4893970;29;20207;-63
2024/02/14 01:47:41;;;;;;;2.13;1.93;;;6.20;47.40;;;;;;4891973;29;20601;-63
2024/02/14 01:50:09;;;;;;;3.33;2.30;;;6.20;46.90;;;;;;4889566;29;20306;-63
2024/02/14 01:52:35;;;;;;;2.70;2.50;;;6.30;47.00;;;;;;4887758;29;20237;-63
2024/02/14 01:55:02;;;;;;;3.43;2.50;;;6.30;47.00;;;;;;4893819;29;20245;-63
2024/02/14 01:57:28;;;;;;;2.70;2.40;;;6.20;47.00;;;;;;4899078;29;20216;-63
2024/02/14 01:59:55;;;;;;;3.63;2.73;;;6.20;47.10;;;;;;4906136;29;20644;-63
2024/02/14 02:02:21;;;;;;;2.63;2.43;;;6.30;46.90;;;;;;4898885;29;20710;-63
2024/02/14 02:04:48;;;;;;;2.67;2.47;;;6.30;46.90;;;;;;4903632;29;20214;-63
2024/02/14 02:07:15;;;;;;;2.80;2.60;;;6.30;46.90;;;;;;4903646;29;20653;-63
2024/02/14 02:09:41;;;;;;;3.27;2.23;;;6.30;47.30;;;;;;4897091;29;20269;-63
2024/02/14 02:12:08;;;;;;;3.20;2.30;;;6.30;46.90;;;;;;4894573;29;20284;-63
2024/02/14 02:14:34;;;;;;;2.47;2.27;;;6.40;46.90;;;;;;4898927;29;20217;-63
2024/02/14 02:17:01;;;;;;;2.53;2.33;;;6.40;47.00;;;;;;4899400;29;20214;-63
2024/02/14 02:19:28;;;;;;;2.40;2.30;;;6.40;47.10;;;;;;4890695;29;20223;-63
2024/02/14 02:21:55;;;;;;;2.57;2.30;;;6.30;46.90;;;;;;4898994;29;20233;-62
2024/02/14 02:24:21;;;;;;;3.10;2.33;;;6.30;46.90;;;;;;4899322;29;20251;-63
2024/02/14 02:26:48;;;;;;;3.87;2.90;;;6.20;46.80;;;;;;4899246;29;20250;-62
2024/02/14 02:29:16;;;;;;;2.63;2.50;;;6.20;46.80;;;;;;4891340;29;20214;-63
2024/02/14 02:31:42;;;;;;;2.23;2.07;;;6.20;47.30;;;;;;4896551;29;20585;-63
2024/02/14 02:34:10;;;;;;;2.97;2.27;;;6.20;46.80;;;;;;4897638;29;20214;-62
2024/02/14 02:36:36;;;;;;;3.80;2.50;;;6.20;46.80;;;;;;4899386;29;20214;-62
2024/02/14 02:39:03;;;;;;;2.60;2.20;;;6.10;46.90;;;;;;4899150;29;20229;-63
2024/02/14 02:41:29;;;;;;;2.80;2.10;;;6.20;46.80;;;;;;4897904;29;20237;-63
2024/02/14 02:43:56;;;;;;;3.27;2.70;;;6.10;46.80;;;;;;4891078;29;20241;-63
2024/02/14 02:46:23;;;;;;;2.33;2.17;;;6.20;46.80;;;;;;4893125;29;20214;-63
2024/02/14 02:48:50;;;;;;;3.20;2.30;;;6.10;46.80;;;;;;4898565;29;20222;-63
2024/02/14 02:51:16;;;;;;;2.57;2.37;;;6.30;46.90;;;;;;4896807;29;20252;-63
2024/02/14 02:53:43;;;;;;;1.80;1.70;;;6.10;46.90;;;;;;4895702;29;20254;-63
2024/02/14 02:56:09;;;;;;;2.40;2.20;;;6.10;46.80;;;;;;4905606;29;20245;-63
2024/02/14 02:58:36;;;;;;;2.60;2.40;;;6.20;46.80;;;;;;4890486;29;20678;-62
2024/02/14 03:01:04;;;;;;;2.23;2.10;;;6.20;46.80;;;;;;4893078;29;20209;-63
2024/02/14 03:03:32;;;;;;;2.50;2.30;;;6.10;47.30;;;;;;4894914;29;20218;-63
2024/02/14 03:06:00;;;;;;;2.07;1.90;;;6.10;47.20;;;;;;4897723;29;20220;-63
2024/02/14 03:08:26;;;;;;;2.73;2.17;;;6.10;47.20;;;;;;4890819;29;20646;-63
2024/02/14 03:10:53;;;;;;;2.10;1.90;;;6.10;47.20;;;;;;4897372;29;20249;-62
2024/02/14 03:13:19;;;;;;;2.20;2.00;;;6.20;47.00;;;;;;4898790;29;20227;-63
2024/02/14 03:15:48;;;;;;;2.30;2.10;;;6.10;47.50;;;;;;4890264;29;20225;-63
2024/02/14 03:18:14;;;;;;;2.30;2.10;;;6.10;47.30;;;;;;4901729;29;20228;-63
2024/02/14 03:20:41;;;;;;;2.47;2.27;;;6.00;47.30;;;;;;4887403;29;20232;-63
2024/02/14 03:23:07;;;;;;;3.33;2.70;;;6.00;47.50;;;;;;4899995;29;20651;-63
2024/02/14 03:25:36;;;;;;;2.70;2.30;;;6.00;47.50;;;;;;4894278;29;20670;-63
2024/02/14 03:28:08;;;;;;;3.00;2.30;;;6.00;47.60;;;;;;4898453;29;20814;-63
2024/02/14 03:30:34;;;;;;;2.23;2.03;;;6.00;47.80;;;;;;4896642;29;20225;-63
2024/02/14 03:33:01;;;;;;;2.33;2.10;;;5.80;47.90;;;;;;4904127;29;20659;-63
2024/02/14 03:35:28;;;;;;;2.10;2.00;;;5.70;48.20;;;;;;4890254;29;20222;-63
2024/02/14 03:37:54;;;;;;;2.23;2.03;;;5.60;48.40;;;;;;4894447;29;20218;-63
2024/02/14 03:40:22;;;;;;;2.67;2.13;;;5.60;48.40;;;;;;4896817;29;20217;-63
2024/02/14 03:42:48;;;;;;;3.07;2.40;;;5.70;48.20;;;;;;4897639;29;20221;-63
2024/02/14 03:45:15;;;;;;;2.27;2.17;;;5.70;48.20;;;;;;4893156;29;20326;-63
2024/02/14 03:47:41;;;;;;;2.13;1.97;;;5.60;48.40;;;;;;4894525;29;20210;-63
2024/02/14 03:50:08;;;;;;;3.07;2.37;;;5.60;47.90;;;;;;4886877;29;20802;-63
2024/02/14 03:52:34;;;;;;;2.17;2.07;;;5.70;47.80;;;;;;4897749;29;20304;-63
2024/02/14 03:55:02;;;;;;;3.53;2.67;;;5.60;47.80;;;;;;4886271;29;20244;-63
2024/02/14 03:57:29;;;;;;;4.47;2.80;;;5.60;47.80;;;;;;4896339;29;20248;-63
2024/02/14 03:59:56;;;;;;;2.43;2.23;;;5.60;47.90;;;;;;4889968;29;20209;-63
2024/02/14 04:02:23;;;;;;;2.40;2.30;;;5.60;47.70;;;;;;4893617;29;20942;-63
2024/02/14 04:04:49;;;;;;;2.60;2.40;;;5.50;47.90;;;;;;4892932;29;20214;-63
2024/02/14 04:07:16;;;;;;;2.37;2.20;;;5.50;47.90;;;;;;4886243;29;20277;-63
2024/02/14 04:09:42;;;;;;;3.47;3.20;;;5.40;47.70;;;;;;4889587;29;20248;-63
2024/02/14 04:12:10;;;;;;;2.83;2.63;;;5.50;47.80;;;;;;4891745;29;20762;-63
2024/02/14 04:14:37;;;;;;;2.77;2.57;;;5.50;47.60;;;;;;4895955;29;20215;-63
2024/02/14 04:17:03;;;;;;;2.80;2.30;;;5.40;47.80;;;;;;4888672;29;20306;-63
2024/02/14 04:19:30;;;;;;;3.20;2.40;;;5.40;47.90;;;;;;4892108;29;20712;-63
2024/02/14 04:21:56;;;;;;;2.57;2.33;;;5.30;48.10;;;;;;4900495;29;20268;-63
2024/02/14 04:24:23;;;;;;;3.43;2.70;;;5.30;48.00;;;;;;4899529;29;20210;-63
2024/02/14 04:26:49;;;;;;;2.27;2.17;;;5.20;48.40;;;;;;4893708;29;20273;-63
2024/02/14 04:29:16;;;;;;;2.90;2.60;;;5.20;48.60;;;;;;4893969;29;20204;-63
2024/02/14 04:31:42;;;;;;;2.60;2.40;;;5.10;48.60;;;;;;4896284;29;20297;-63
2024/02/14 04:34:10;;;;;;;2.40;2.10;;;5.00;49.00;;;;;;4895682;29;20668;-63
2024/02/14 04:36:36;;;;;;;2.67;2.40;;;5.10;48.90;;;;;;4891667;29;20288;-63
2024/02/14 04:39:03;;;;;;;2.70;2.50;;;5.20;48.40;;;;;;4890813;29;20612;-63
2024/02/14 04:41:30;;;;;;;2.60;2.40;;;5.30;48.30;;;;;;4889578;29;20255;-63
2024/02/14 04:43:56;;;;;;;2.80;2.60;;;5.30;48.20;;;;;;4897202;29;20219;-63
2024/02/14 04:46:23;;;;;;;2.43;2.23;;;5.30;47.90;;;;;;4895050;29;20209;-63
2024/02/14 04:48:49;;;;;;;2.87;2.60;;;5.40;47.60;;;;;;4897165;29;20212;-63
2024/02/14 04:51:16;;;;;;;2.87;2.30;;;5.40;47.60;;;;;;4889266;29;20240;-63
2024/02/14 04:53:42;;;;;;;2.40;2.30;;;5.40;47.40;;;;;;4899883;29;20310;-63
2024/02/14 04:56:09;;;;;;;2.33;2.20;;;5.40;47.10;;;;;;4898864;29;20237;-63
2024/02/14 04:58:36;;;;;;;2.80;2.43;;;5.50;47.10;;;;;;4889151;29;20592;-62
2024/02/14 05:01:02;;;;;;;3.47;2.60;;;5.50;46.90;;;;;;4888861;29;20209;-63
2024/02/14 05:03:29;;;;;;;3.53;2.57;;;5.60;47.10;;;;;;4884770;29;20669;-63
2024/02/14 05:05:57;;;;;;;3.50;2.50;;;5.70;46.60;;;;;;4891104;29;20236;-63
2024/02/14 05:08:24;;;;;;;4.27;2.70;;;5.60;46.40;;;;;;4896821;29;20222;-63
2024/02/14 05:10:50;;;;;;;2.30;2.10;;;5.60;46.50;;;;;;4891855;29;20209;-63
2024/02/14 05:13:17;;;;;;;3.10;2.73;;;5.70;46.50;;;;;;4888464;29;20286;-63
2024/02/14 05:15:43;;;;;;;2.60;2.40;;;5.70;46.40;;;;;;4903072;29;20241;-63
2024/02/14 05:18:10;;;;;;;2.70;2.50;;;5.70;46.40;;;;;;4896165;29;20217;-63
2024/02/14 05:20:38;;;;;;;2.97;2.30;;;5.80;46.30;;;;;;4884277;29;20269;-63
2024/02/14 05:23:04;;;;;;;3.50;2.60;;;5.70;46.40;;;;;;4894332;29;20233;-63
2024/02/14 05:25:32;;;;;;;4.47;2.30;;;5.70;46.40;;;;;;4893547;29;20232;-63
2024/02/14 05:27:59;;;;;;;2.60;2.40;;;5.70;46.40;;;;;;4901984;29;20281;-63
2024/02/14 05:30:26;;;;;;;3.13;2.83;;;5.60;46.30;;;;;;4892356;29;20210;-63
2024/02/14 05:32:53;;;;;;;2.60;2.40;;;5.70;46.40;;;;;;4891774;29;20233;-63
2024/02/14 05:35:20;;;;;;;2.60;2.40;;;5.80;46.50;;;;;;4907025;29;20251;-63
2024/02/14 05:37:50;;;;;;;2.93;2.60;;;5.80;46.30;;;;;;4896050;29;20229;-63
2024/02/14 05:40:17;;;;;;;3.13;2.70;;;5.80;45.90;;;;;;4900142;29;20218;-63
2024/02/14 05:42:44;;;;;;;2.40;2.20;;;5.60;46.30;;;;;;4899419;29;20608;-63
2024/02/14 05:45:11;;;;;;;6.90;3.07;;;5.80;46.40;;;;;;4900250;29;20307;-63
2024/02/14 05:47:37;;;;;;;3.07;2.20;;;5.90;45.70;;;;;;4896527;29;20289;-63
2024/02/14 05:50:04;;;;;;;2.53;2.33;;;5.90;46.00;;;;;;4894821;29;20257;-63
2024/02/14 05:52:31;;;;;;;2.53;2.30;;;5.80;45.20;;;;;;4905951;29;20235;-63
2024/02/14 05:54:57;;;;;;;2.80;2.40;;;6.00;45.20;;;;;;4894585;29;20270;-63
2024/02/14 05:57:24;;;;;;;3.83;2.20;;;5.90;45.00;;;;;;4903499;29;20218;-63
2024/02/14 05:59:51;;;;;;;3.47;2.33;;;6.00;45.00;;;;;;4891699;29;20220;-63
2024/02/14 06:02:17;;;;;;;2.67;2.47;;;6.10;45.00;;;;;;4896843;29;20245;-63
2024/02/14 06:04:44;;;;;;;2.60;2.40;;;6.10;44.70;;;;;;4896339;29;20289;-63
2024/02/14 06:07:11;;;;;;;2.27;2.17;;;6.10;45.60;;;;;;4899249;29;20230;-63
2024/02/14 06:09:38;;;;;;;2.87;2.33;;;6.10;44.70;;;;;;4891711;29;20269;-63
2024/02/14 06:12:04;;;;;;;2.57;2.37;;;6.10;44.90;;;;;;4909502;29;20233;-63
2024/02/14 06:14:33;;;;;;;4.00;2.23;;;6.10;45.50;;;;;;4899392;29;20232;-63
2024/02/14 06:17:00;;;;;;;2.80;2.23;;;6.20;44.70;;;;;;4888041;29;20378;-63
2024/02/14 06:19:27;;;;;;;4.70;2.63;;;6.20;44.50;;;;;;4897184;29;20308;-63
2024/02/14 06:21:53;;;;;;;2.37;2.17;;;6.30;44.60;;;;;;4896856;29;20331;-63
2024/02/14 06:24:20;;;;;;;3.00;2.10;;;6.40;44.20;;;;;;4897677;29;20275;-63
2024/02/14 06:26:46;;;;;;;3.20;2.10;;;6.40;44.30;;;;;;4899862;29;20240;-62
2024/02/14 06:29:13;;;;;;;3.73;2.40;;;6.30;44.40;;;;;;4902828;29;20331;-63
2024/02/14 06:31:40;;;;;;;2.43;2.27;;;6.40;44.50;;;;;;4888437;29;20269;-63
2024/02/14 06:34:08;;;;;;;2.10;2.00;;;6.50;44.30;;;;;;4888002;29;20633;-63
2024/02/14 06:36:34;;;;;;;2.90;2.30;;;6.50;44.20;;;;;;4901350;29;20209;-63
2024/02/14 06:39:01;;;;;;;2.90;2.60;;;6.60;44.00;;;;;;4902988;29;20221;-63
2024/02/14 06:41:27;;;;;;;2.10;2.00;;;6.70;43.60;;;;;;4895264;29;20664;-63
2024/02/14 06:43:54;;;;;;;4.10;2.43;;;6.60;43.90;;;;;;4891409;29;20214;-63
2024/02/14 06:46:20;;;;;;;6.07;2.20;;;6.60;44.50;;;;;;4890536;29;20282;-63
2024/02/14 06:48:47;;;;;;;3.17;2.07;;;6.50;44.70;;;;;;4892421;29;20214;-63
2024/02/14 06:51:13;;;;;;;4.30;2.40;;;6.60;44.50;;;;;;4900103;29;20269;-63
2024/02/14 06:53:40;;;;;;;3.33;2.37;;;6.60;44.40;;;;;;4899329;29;20245;-63
2024/02/14 06:56:06;;;;;;;3.17;2.60;;;6.70;44.20;;;;;;4895078;29;20214;-63
2024/02/14 06:58:33;;;;;;;3.33;2.70;;;6.70;44.30;;;;;;4890724;29;20242;-63
2024/02/14 07:00:59;;;;;;;6.23;2.43;;;6.70;44.30;;;;;;4901773;29;20210;-63
2024/02/14 07:03:26;;;;;;;2.80;2.47;;;6.80;44.00;;;;;;4895949;29;20242;-63
2024/02/14 07:05:53;;;;;;;3.23;2.50;;;6.80;44.50;;;;;;4898400;29;20274;-63
2024/02/14 07:08:19;;;;;;;3.83;2.50;;;6.90;44.30;;;;;;4891049;29;20297;-63
2024/02/14 07:10:46;;;;;;;4.83;2.77;;;6.90;43.90;;;;;;4903244;29;20651;-63
2024/02/14 07:13:13;;;;;;;3.93;2.30;;;7.00;43.90;;;;;;4898275;29;20290;-63
2024/02/14 07:15:40;;;;;;;3.37;2.67;;;7.00;44.10;;;;;;4883072;29;20221;-63
2024/02/14 07:18:09;;;;;;;3.90;2.30;;;7.10;44.10;;;;;;4891517;29;20302;-63
2024/02/14 07:20:36;;;;;;;3.90;2.70;;;7.00;43.70;;;;;;4887042;29;20685;-63
2024/02/14 07:23:03;;;;;;;3.33;2.30;;;7.10;43.30;;;;;;4887926;29;20255;-63
2024/02/14 07:25:29;;;;;;;6.20;2.43;;;7.10;43.10;;;;;;4897710;29;20218;-63
2024/02/14 07:27:56;;;;;;;5.67;2.40;;;7.10;43.10;;;;;;4900888;29;20246;-63
2024/02/14 07:30:22;;;;;;;4.20;2.13;;;7.00;43.00;;;;;;4897373;29;20693;-63
2024/02/14 07:32:50;;;;;;;2.53;2.30;;;7.00;42.60;;;;;;4887110;29;20294;-63
2024/02/14 07:35:17;;;;;;;3.43;2.30;;;7.10;42.10;;;;;;4896645;29;20222;-63
2024/02/14 07:37:44;;;;;;;2.23;2.13;;;7.00;41.90;;;;;;4892746;29;20217;-63
2024/02/14 07:40:10;;;;;;;2.03;1.90;;;7.10;41.20;;;;;;4896024;29;20210;-63
2024/02/14 07:42:37;;;;;;;2.87;2.23;;;7.20;41.00;;;;;;4888981;29;20222;-63
2024/02/14 07:45:04;;;;;;;2.40;2.20;;;7.20;40.90;;;;;;4895943;29;20783;-63
2024/02/14 07:47:30;;;;;;;2.10;1.90;;;7.30;40.70;;;;;;4896283;29;20234;-63
2024/02/14 07:49:57;;;;;;;2.07;1.90;;;7.30;41.10;;;;;;4892446;29;20259;-63
2024/02/14 07:52:23;;;;;;;2.70;2.27;;;7.40;40.40;;;;;;4893837;29;20257;-63
2024/02/14 07:54:50;;;;;;;2.90;2.40;;;7.50;40.40;;;;;;4902254;29;20694;-63
2024/02/14 07:57:16;;;;;;;2.63;2.37;;;7.50;40.10;;;;;;4896219;29;20211;-63
2024/02/14 07:59:43;;;;;;;4.90;2.27;;;7.50;40.20;;;;;;4896817;29;20219;-63
2024/02/14 08:02:09;;;;;;;2.73;2.00;;;7.40;40.20;;;;;;4896542;29;20231;-63
2024/02/14 08:04:36;;;;;;;4.73;2.57;;;7.40;40.20;;;;;;4894452;29;20211;-63
2024/02/14 08:07:03;;;;;;;2.87;2.00;;;7.50;40.70;;;;;;4892630;29;20246;-63
2024/02/14 08:09:29;;;;;;;2.73;2.30;;;7.50;40.30;;;;;;4894909;29;20214;-63
2024/02/14 08:11:56;;;;;;;3.63;2.30;;;7.50;39.90;;;;;;4895581;29;20238;-63
2024/02/14 08:14:22;;;;;;;3.03;2.33;;;7.50;40.20;;;;;;4895147;29;20250;-63
2024/02/14 08:16:49;;;;;;;3.77;2.50;;;7.60;40.10;;;;;;4895266;29;20214;-63
2024/02/14 08:19:15;;;;;;;3.50;2.10;;;7.60;40.40;;;;;;4898309;29;20219;-63
2024/02/14 08:21:42;;;;;;;3.73;2.20;;;7.70;40.20;;;;;;4895714;29;20226;-63
2024/02/14 08:24:08;;;;;;;2.47;2.27;;;7.70;40.50;;;;;;4890394;29;20270;-63
2024/02/14 08:26:35;;;;;;;4.50;2.40;;;7.90;40.20;;;;;;4897972;29;20215;-63
2024/02/14 08:29:02;;;;;;;2.53;2.30;;;7.70;39.70;;;;;;4904575;29;20234;-63
2024/02/14 08:31:28;;;;;;;2.47;2.20;;;7.70;40.80;;;;;;4891975;29;20259;-63
2024/02/14 08:33:55;;;;;;;2.47;2.10;;;7.70;41.50;;;;;;4894017;29;20262;-63
2024/02/14 08:36:21;;;;;;;4.60;2.70;;;7.80;41.00;;;;;;4891639;29;20637;-63
2024/02/14 08:38:48;;;;;;;3.57;2.07;;;7.90;40.90;;;;;;4888659;29;20212;-63
2024/02/14 08:43:55;;;;;;;2.90;2.27;;;8.10;40.60;;;;;;4894389;29;20203;-67
2024/02/14 08:46:23;;;;;;;2.80;2.00;;;8.60;39.70;;;;;;4888432;29;20211;-63
2024/02/14 08:48:49;;;;;;;3.50;2.23;;;8.90;39.20;;;;;;4895653;29;20534;-64
2024/02/14 08:51:16;;;;;;;3.40;1.93;;;8.80;37.90;;;;;;4893461;29;20734;-64
2024/02/14 08:53:43;;;;;;;3.67;2.27;;;8.70;38.60;;;;;;4894337;29;20733;-64
2024/02/14 08:56:10;;;;;;;2.20;2.10;;;8.70;38.90;;;;;;4894390;29;20295;-64
2024/02/14 08:58:37;;;;;;;2.77;2.57;;;8.90;38.90;;;;;;4894754;29;20213;-63
2024/02/14 09:01:03;;;;;;;2.37;2.17;;;9.30;38.40;;;;;;4888862;29;20263;-64
2024/02/14 09:03:31;;;;;;;2.33;2.10;;;10.10;35.30;;;;;;4894263;29;20654;-64
2024/02/14 09:05:57;;;;;;;3.63;1.80;;;10.10;34.80;;;;;;4893752;29;20220;-63
2024/02/14 09:08:24;;;;;;;2.50;2.00;;;9.80;36.00;;;;;;4894790;29;20281;-64
2024/02/14 09:10:50;;;;;;;2.90;2.13;;;9.90;36.80;;;;;;4893289;29;20299;-64
2024/02/14 09:13:17;;;;;;;2.20;2.10;;;9.90;37.10;;;;;;4890478;29;20224;-63
2024/02/14 09:15:44;;;;;;;2.20;2.00;;;10.30;36.00;;;;;;4860359;29;20600;-64
2024/02/14 09:18:11;;;;;;;1.93;1.83;;;10.90;34.40;;;;;;4903682;29;20712;-65
2024/02/14 09:20:38;;;;;;;2.00;1.80;;;11.10;33.70;;;;;;4914136;29;20285;-65
2024/02/14 09:23:04;;;;;;;2.40;2.20;;;11.10;33.20;;;;;;4913135;29;20245;-65
2024/02/14 09:25:31;;;;;;;2.60;1.90;;;11.70;33.20;;;;;;4906362;29;20242;-64
2024/02/14 09:27:58;;;;;;;2.60;2.10;;;11.70;32.40;;;;;;4912365;29;20302;-65
2024/02/14 09:30:24;;;;;;;2.17;1.97;;;11.60;32.60;;;;;;4896369;29;26733;-65
2024/02/14 09:32:51;;;;;;;2.30;2.10;;;11.20;32.70;;;;;;4911157;29;20297;-65
2024/02/14 09:35:18;;;;;;;2.60;1.80;;;11.00;33.50;;;;;;4908493;29;20215;-65
2024/02/14 09:37:44;;;;;;;2.40;2.20;;;10.80;33.30;;;;;;4910474;29;20216;-65
2024/02/14 09:40:12;;;;;;;3.50;1.80;;;10.80;33.70;;;;;;4914310;29;20246;-64
2024/02/14 09:42:40;;;;;;;3.43;1.90;;;10.80;33.90;;;;;;4913342;29;20231;-65
2024/02/14 09:45:06;;;;;;;2.10;1.90;;;11.10;33.70;;;;;;4909006;29;20217;-67
2024/02/14 09:47:33;;;;;;;4.77;2.03;;;11.10;33.10;;;;;;4913374;29;20312;-64
2024/02/14 09:50:00;;;;;;;1.60;1.50;;;11.10;34.70;;;;;;4912736;29;20595;-64
2024/02/14 09:52:26;;;;;;;3.27;1.90;;;10.90;37.00;;;;;;4910733;29;20240;-64
2024/02/14 09:54:53;;;;;;;2.50;2.30;;;10.90;36.10;;;;;;4908557;29;20238;-65
2024/02/14 09:57:19;;;;;;;2.97;1.87;;;10.90;34.70;;;;;;4910395;29;20214;-64
2024/02/14 09:59:46;;;;;;;2.37;2.17;;;10.80;35.70;;;;;;4903847;29;20248;-64
2024/02/14 10:02:12;;;;;;;2.20;1.70;;;10.70;36.30;;;;;;4902890;29;20775;-65
2024/02/14 10:04:39;;;;;;;2.00;1.80;;;10.70;37.10;;;;;;4906040;29;21163;-67
2024/02/14 10:07:06;;;;;;;3.00;1.50;;;10.70;36.10;;;;;;4899548;29;20214;-64
2024/02/14 10:09:32;;;;;;;2.10;1.70;;;10.70;35.80;;;;;;4909154;29;20296;-65
2024/02/14 10:11:59;;;;;;;1.97;1.87;;;10.90;35.20;;;;;;4903543;29;20234;-64
2024/02/14 10:14:25;;;;;;;2.20;2.10;;;11.00;35.00;;;;;;4907423;29;20228;-65
2024/02/14 10:16:52;;;;;;;2.13;1.70;;;11.10;35.70;;;;;;4915327;29;20592;-64
2024/02/14 10:19:18;;;;;;;2.93;1.90;;;11.40;37.10;;;;;;4916291;29;20239;-65
2024/02/14 10:21:45;;;;;;;2.73;1.73;;;11.80;37.90;;;;;;4915068;29;20223;-64
2024/02/14 10:24:12;;;;;;;2.30;1.80;;;11.90;33.80;;;;;;4909666;29;20206;-65
2024/02/14 10:26:38;;;;;;;3.10;1.50;;;11.90;34.30;;;;;;4917275;29;20241;-64
2024/02/14 10:29:05;;;;;;;2.77;1.47;;;12.10;34.20;;;;;;4911328;29;20783;-65
2024/02/14 10:31:31;;;;;;;2.37;2.00;;;12.40;34.20;;;;;;4912417;29;20733;-65
2024/02/14 10:33:58;;;;;;;2.17;1.73;;;12.40;32.90;;;;;;4916788;29;20252;-64
2024/02/14 10:36:25;;;;;;;1.80;1.70;;;12.40;32.90;;;;;;4915607;29;20268;-65
2024/02/14 10:38:51;;;;;;;3.47;1.87;;;12.70;32.90;;;;;;4914701;29;20247;-65
2024/02/14 10:41:18;;;;;;;1.60;1.50;;;12.90;32.30;;;;;;4915903;29;20230;-64
2024/02/14 10:43:45;;;;;;;2.97;2.20;;;13.80;31.80;;;;;;4915232;29;20202;-65
2024/02/14 10:46:12;;;;;;;2.20;1.80;;;13.80;30.60;;;;;;4909838;29;20756;-65
2024/02/14 10:48:38;;;;;;;3.13;1.63;;;14.40;32.70;;;;;;4916475;29;20258;-65
2024/02/14 10:51:05;;;;;;;2.53;1.57;;;14.70;30.90;;;;;;4913510;29;20238;-65
2024/02/14 10:53:31;;;;;;;1.77;1.67;;;15.00;29.30;;;;;;4915762;29;20709;-65
2024/02/14 10:55:58;;;;;;;3.33;1.97;;;15.80;28.50;;;;;;4917804;29;20226;-65
2024/02/14 10:58:25;;;;;;;1.70;1.57;;;18.30;25.90;;;;;;4916106;29;20215;-65
2024/02/14 11:00:51;;;;;;;2.40;1.40;;;19.80;24.70;;;;;;4912207;29;20637;-65
2024/02/14 11:03:18;;;;;;;1.83;1.60;;;16.50;27.40;;;;;;4911196;29;20217;-65
2024/02/14 11:05:45;;;;;;;4.43;2.40;;;15.20;29.70;;;;;;4912934;29;20202;-65
2024/02/14 11:08:12;;;;;;;1.30;1.20;;;15.60;29.40;;;;;;4916678;29;20277;-65
2024/02/14 11:10:38;;;;;;;3.43;1.30;;;14.70;29.90;;;;;;4912370;29;20258;-65
2024/02/14 11:13:05;;;;;;;1.90;1.20;;;14.60;30.50;;;;;;4917172;29;20242;-65
2024/02/14 11:15:31;;;;;;;1.80;1.37;;;14.20;30.50;;;;;;4915402;29;20747;-65
2024/02/14 11:17:58;;;;;;;2.57;2.27;;;14.00;31.10;;;;;;4912363;29;20209;-65
2024/02/14 11:20:24;;;;;;;2.60;1.87;;;14.10;30.70;;;;;;4915667;29;20210;-64
2024/02/14 11:22:50;;;;;;;3.83;1.90;;;14.10;31.10;;;;;;4907322;29;20661;-65
2024/02/14 11:25:16;;;;;;;2.77;2.13;;;14.80;30.40;;;;;;4912343;29;20220;-65
2024/02/14 11:27:43;;;;;;;6.80;3.50;;;16.70;28.20;;;;;;4916476;29;20260;-65
2024/02/14 11:30:11;;;;;;;2.20;1.70;;;16.90;27.70;;;;;;4914025;29;20215;-65
2024/02/14 11:32:39;;;;;;;4.23;2.03;;;16.50;28.00;;;;;;4913669;29;20234;-65
2024/02/14 11:35:06;;;;;;;2.70;1.60;;;15.80;28.70;;;;;;4907209;29;20298;-65
2024/02/14 11:37:32;;;;;;;3.60;1.20;;;16.00;28.90;;;;;;4907019;29;20206;-65
2024/02/14 11:39:59;;;;;;;3.00;1.60;;;15.30;29.70;;;;;;4883736;29;20212;-65
2024/02/14 11:42:25;;;;;;;3.67;1.70;;;14.80;31.10;;;;;;4863292;29;20357;-65
2024/02/14 11:44:52;;;;;;;1.90;1.63;;;14.30;32.30;;;;;;4873636;29;20960;-65
2024/02/14 11:47:18;;;;;;;2.77;2.40;;;14.00;33.40;;;;;;4878849;29;20228;-65
2024/02/14 11:49:46;;;;;;;1.50;1.40;;;13.80;33.90;;;;;;4878161;29;20216;-66
2024/02/14 11:52:15;;;;;;;2.40;1.47;;;13.80;33.80;;;;;;4904619;29;20251;-64
2024/02/14 11:54:41;;;;;;;2.10;1.50;;;13.60;33.70;;;;;;4908373;29;20228;-64
2024/02/14 11:57:09;;;;;;;2.03;1.53;;;13.60;33.70;;;;;;4911058;29;20290;-65
2024/02/14 11:59:36;;;;;;;2.33;1.53;;;13.60;33.70;;;;;;4914950;29;20242;-65
2024/02/14 12:02:02;;;;;;;1.50;1.40;;;13.80;33.40;;;;;;4913903;29;20367;-65
2024/02/14 12:04:29;;;;;;;2.57;1.90;;;13.80;33.90;;;;;;4907603;29;20673;-64
2024/02/14 12:06:55;;;;;;;2.80;1.60;;;13.80;33.90;;;;;;4914543;29;20247;-64
2024/02/14 12:09:22;;;;;;;3.70;2.00;;;13.90;33.90;;;;;;4906708;29;20253;-64
2024/02/14 12:11:49;;;;;;;1.60;1.50;;;14.20;33.90;;;;;;4909920;29;20230;-64
2024/02/14 12:14:18;;;;;;;1.60;1.50;;;14.30;33.50;;;;;;4912048;29;20230;-64
2024/02/14 12:16:45;;;;;;;1.73;1.63;;;14.50;33.00;;;;;;4911630;29;20216;-64
2024/02/14 12:19:11;;;;;;;1.80;1.70;;;14.40;32.80;;;;;;4910683;29;20220;-65
2024/02/14 12:21:38;;;;;;;1.63;1.33;;;14.40;32.50;;;;;;4907224;29;20240;-65
2024/02/14 12:24:04;;;;;;;1.50;1.40;;;14.60;32.30;;;;;;4913597;29;20209;-65
2024/02/14 12:26:31;;;;;;;1.27;1.17;;;14.60;32.00;;;;;;4908455;29;20263;-64
2024/02/14 12:28:57;;;;;;;1.80;1.40;;;14.50;32.40;;;;;;4909354;29;20213;-64
2024/02/14 12:31:24;;;;;;;3.00;1.40;;;14.10;33.10;;;;;;4914280;29;20228;-64
2024/02/14 12:33:52;;;;;;;1.73;1.63;;;14.20;33.20;;;;;;4908506;29;20259;-64
2024/02/14 12:36:19;;;;;;;1.80;1.53;;;13.90;33.30;;;;;;4907188;29;20219;-65
2024/02/14 12:38:46;;;;;;;1.60;1.50;;;13.70;33.80;;;;;;4908826;29;20221;-65
2024/02/14 12:41:12;;;;;;;2.70;1.60;;;13.80;33.90;;;;;;4903297;29;20242;-63
2024/02/14 12:43:39;;;;;;;1.70;1.60;;;14.30;32.60;;;;;;4910630;29;20288;-65
2024/02/14 12:46:05;;;;;;;3.17;1.40;;;14.90;32.10;;;;;;4909779;29;20233;-65
2024/02/14 12:48:32;;;;;;;1.40;1.30;;;15.40;31.30;;;;;;4902832;29;20323;-71
2024/02/14 12:50:58;;;;;;;4.53;1.57;;;14.80;31.40;;;;;;4914824;29;20247;-65